Terminal Aerodrome Forecast
Issued by NWS

Home | Current Version | Previous Version | Text Only | Print | Product List | Glossary On
Versions: 1 2 3 4 5 6 7 8 9 10 11 12 13 14 15 16 17 18 19 20 21 22 23 24 25 26 27 28 29 30 31 32
000
FTUS43 KDTX 281137
TAFPTK
TAF
KPTK 281137Z 2812/2912 12006KT P6SM FEW060 SCT120 BKN200
     FM281600 17007KT P6SM BKN040 BKN150
      TEMPO 2822/2902 3SM TSRA OVC025CB
     FM290200 28008KT 5SM BR BKN016
     FM290600 26006KT 6SM BR SCT014 BKN200=

USA.gov is the U.S. government's official web portal to all federal, state and local government web resources and services.